createdAt,value
2022-08-19T00:00:33.212Z,18.60
2022-08-19T00:01:33.213Z,18.80
2022-08-19T00:02:33.191Z,19.50
2022-08-19T00:03:33.442Z,18.40
2022-08-19T00:04:33.190Z,19.20
2022-08-19T00:05:33.166Z,19.80
2022-08-19T00:06:33.151Z,18.80
2022-08-19T00:07:33.147Z,19.30
2022-08-19T00:08:33.149Z,19.30
2022-08-19T00:09:33.355Z,19.50
2022-08-19T00:10:33.112Z,19.80
2022-08-19T00:11:33.182Z,20.40
2022-08-19T00:12:33.092Z,20.00
2022-08-19T00:13:34.074Z,20.10
2022-08-19T00:14:33.167Z,20.20
2022-08-19T00:15:33.280Z,20.30
2022-08-19T00:16:33.033Z,21.70
2022-08-19T00:17:33.032Z,21.20
2022-08-19T00:18:33.032Z,19.80
2022-08-19T00:19:33.010Z,20.80
2022-08-19T00:20:32.998Z,20.60
2022-08-19T00:21:33.154Z,20.90
2022-08-19T00:22:33.047Z,21.10
2022-08-19T00:23:32.963Z,20.90
2022-08-19T00:24:33.129Z,20.40
2022-08-19T00:25:32.953Z,20.30
2022-08-19T00:26:32.973Z,21.00
2022-08-19T00:27:32.927Z,20.50
2022-08-19T00:28:32.913Z,21.50
2022-08-19T00:29:32.914Z,20.50
2022-08-19T00:30:33.131Z,20.60
2022-08-19T00:31:32.885Z,20.30
2022-08-19T00:32:32.864Z,21.60
2022-08-19T00:33:32.866Z,20.70
2022-08-19T00:34:32.851Z,20.60
2022-08-19T00:35:32.834Z,19.80
2022-08-19T00:36:33.163Z,21.30
2022-08-19T00:37:32.822Z,21.80
2022-08-19T00:38:37.969Z,20.40
2022-08-19T00:39:33.853Z,20.30
2022-08-19T00:40:32.794Z,21.10
2022-08-19T00:41:32.797Z,20.70
2022-08-19T00:42:32.924Z,19.70
2022-08-19T00:43:32.765Z,19.80
2022-08-19T00:44:32.764Z,20.00
2022-08-19T00:45:32.755Z,20.80
2022-08-19T00:46:32.722Z,20.40
2022-08-19T00:47:33.036Z,21.20
2022-08-19T00:48:32.725Z,20.80
2022-08-19T00:49:32.706Z,20.60
2022-08-19T00:50:32.692Z,20.20
2022-08-19T00:51:32.666Z,21.30
2022-08-19T00:52:32.675Z,20.80
2022-08-19T00:53:32.805Z,21.20
2022-08-19T00:54:32.626Z,20.70
2022-08-19T00:55:32.658Z,21.70
2022-08-19T00:56:32.617Z,21.30
2022-08-19T00:57:32.607Z,20.50
2022-08-19T00:58:32.586Z,21.70
2022-08-19T00:59:56.168Z,22.30
2022-08-19T01:00:33.571Z,22.10
2022-08-19T01:01:32.594Z,21.30
2022-08-19T01:02:32.582Z,21.20
2022-08-19T01:03:56.476Z,20.30
2022-08-19T01:04:34.407Z,21.80
2022-08-19T01:05:32.571Z,22.20
2022-08-19T01:06:32.505Z,21.60
2022-08-19T01:07:35.900Z,21.50
2022-08-19T01:08:33.487Z,20.70
2022-08-19T01:09:32.472Z,21.10
2022-08-19T01:10:36.691Z,21.00
2022-08-19T01:11:32.466Z,22.20
2022-08-19T01:12:32.456Z,22.10
2022-08-19T01:13:49.135Z,20.80
2022-08-19T01:14:33.425Z,21.20
2022-08-19T01:15:32.408Z,21.20
2022-08-19T01:16:32.553Z,20.50
2022-08-19T01:17:32.398Z,20.10
2022-08-19T01:18:32.369Z,20.50
2022-08-19T01:19:32.387Z,20.20
2022-08-19T01:20:33.362Z,21.00
2022-08-19T01:21:32.658Z,20.80
2022-08-19T01:22:33.935Z,21.30
2022-08-19T01:23:32.328Z,21.80
2022-08-19T01:24:32.338Z,21.70
2022-08-19T01:25:32.308Z,21.90
2022-08-19T01:26:32.290Z,20.70
2022-08-19T01:27:38.041Z,20.90
2022-08-19T01:28:33.887Z,20.90
2022-08-19T01:29:32.275Z,20.10
2022-08-19T01:30:32.241Z,20.00
2022-08-19T01:31:32.797Z,21.00
2022-08-19T01:32:33.939Z,20.00
2022-08-19T01:33:32.531Z,20.60
2022-08-19T01:34:32.211Z,19.60
2022-08-19T01:35:32.222Z,21.00
2022-08-19T01:36:32.188Z,19.90
2022-08-19T01:37:32.171Z,20.70
2022-08-19T01:38:32.168Z,20.60
2022-08-19T01:39:32.509Z,19.10
2022-08-19T01:40:32.140Z,20.30
2022-08-19T01:41:32.139Z,20.60
2022-08-19T01:42:32.117Z,21.20
2022-08-19T01:43:32.105Z,22.10
2022-08-19T01:44:32.103Z,22.20
2022-08-19T01:45:32.280Z,21.10
2022-08-19T01:46:32.072Z,21.90
2022-08-19T01:47:32.072Z,22.50
2022-08-19T01:48:32.050Z,20.90
2022-08-19T01:49:32.041Z,23.40
2022-08-19T01:50:32.042Z,21.70
2022-08-19T01:51:39.643Z,21.70
2022-08-19T01:52:33.012Z,20.90
2022-08-19T01:53:33.730Z,22.60
2022-08-19T01:54:31.990Z,20.60
2022-08-19T01:55:31.982Z,23.00
2022-08-19T01:56:32.138Z,21.30
2022-08-19T01:57:31.952Z,22.90
2022-08-19T01:58:31.950Z,21.10
2022-08-19T01:59:31.940Z,20.50
2022-08-19T02:00:31.926Z,21.20
2022-08-19T02:01:31.929Z,20.20
2022-08-19T02:02:32.070Z,21.40
2022-08-19T02:03:39.415Z,20.40
2022-08-19T02:04:31.879Z,21.50
2022-08-19T02:05:31.870Z,21.20
2022-08-19T02:06:31.869Z,20.00
2022-08-19T02:07:32.229Z,19.80
2022-08-19T02:08:31.842Z,21.50
2022-08-19T02:09:31.831Z,21.40
2022-08-19T02:10:31.820Z,21.10
2022-08-19T02:11:31.808Z,20.90
2022-08-19T02:12:31.791Z,20.70
2022-08-19T02:13:31.969Z,21.70
2022-08-19T02:14:31.782Z,20.30
2022-08-19T02:15:31.760Z,20.50
2022-08-19T02:16:31.793Z,21.50
2022-08-19T02:17:31.742Z,23.10
2022-08-19T02:18:31.732Z,23.30
2022-08-19T02:19:32.078Z,22.20
2022-08-19T02:20:31.724Z,23.00
2022-08-19T02:21:31.704Z,21.60
2022-08-19T02:22:31.691Z,20.50
2022-08-19T02:23:31.745Z,23.30
2022-08-19T02:24:31.670Z,23.10
2022-08-19T02:25:31.984Z,22.90
2022-08-19T02:26:31.683Z,21.30
2022-08-19T02:27:31.637Z,21.30
2022-08-19T02:28:31.622Z,24.60
2022-08-19T02:29:31.616Z,24.90
2022-08-19T02:30:31.602Z,23.50
2022-08-19T02:31:31.790Z,24.40
2022-08-19T02:32:31.593Z,23.40
2022-08-19T02:33:31.572Z,23.70
2022-08-19T02:34:31.560Z,24.20
2022-08-19T02:35:31.555Z,23.20
2022-08-19T02:36:31.704Z,23.20
2022-08-19T02:37:31.530Z,22.80
2022-08-19T02:38:31.535Z,23.80
2022-08-19T02:39:31.535Z,24.50
2022-08-19T02:40:31.494Z,24.60
2022-08-19T02:41:31.635Z,26.20
2022-08-19T02:42:31.478Z,25.50
2022-08-19T02:43:33.823Z,26.10
2022-08-19T02:44:32.063Z,25.30
2022-08-19T02:45:31.432Z,26.10
2022-08-19T02:46:31.423Z,24.20
2022-08-19T02:47:31.584Z,26.50
2022-08-19T02:48:31.419Z,27.20
2022-08-19T02:49:34.758Z,27.80
2022-08-19T02:50:31.406Z,28.20
2022-08-19T02:51:31.374Z,27.70
2022-08-19T02:52:31.374Z,26.80
2022-08-19T02:53:31.746Z,28.50
2022-08-19T02:54:31.347Z,26.70
2022-08-19T02:55:31.334Z,27.20
2022-08-19T02:56:32.335Z,28.30
2022-08-19T02:57:31.316Z,30.30
2022-08-19T02:58:31.328Z,28.50
2022-08-19T02:59:31.531Z,29.90
2022-08-19T03:00:31.294Z,29.90
2022-08-19T03:01:31.293Z,30.60
2022-08-19T03:02:31.266Z,30.10
2022-08-19T03:03:31.244Z,29.60
2022-08-19T03:04:31.236Z,30.90
2022-08-19T03:05:47.036Z,30.40
2022-08-19T03:06:32.214Z,29.70
2022-08-19T03:07:31.225Z,28.90
2022-08-19T03:08:31.200Z,30.10
2022-08-19T03:09:31.188Z,28.60
2022-08-19T03:10:31.175Z,28.20
2022-08-19T03:11:31.472Z,29.30
2022-08-19T03:12:31.146Z,31.10
2022-08-19T03:13:31.135Z,32.70
2022-08-19T03:14:31.137Z,29.40
2022-08-19T03:15:31.134Z,29.50
2022-08-19T03:16:33.507Z,30.50
2022-08-19T03:17:31.458Z,31.20
2022-08-19T03:18:31.093Z,30.50
2022-08-19T03:19:31.075Z,30.30
2022-08-19T03:20:31.076Z,31.70
2022-08-19T03:21:31.058Z,31.50
2022-08-19T03:22:31.090Z,32.00
2022-08-19T03:23:31.195Z,30.70
2022-08-19T03:24:31.025Z,31.60
2022-08-19T03:25:31.005Z,30.60
2022-08-19T03:26:31.003Z,30.60
2022-08-19T03:27:34.177Z,31.10
2022-08-19T03:28:31.196Z,32.10
2022-08-19T03:29:31.770Z,31.30
2022-08-19T03:30:30.967Z,31.50
2022-08-19T03:31:44.681Z,31.10
2022-08-19T03:32:32.872Z,31.90
2022-08-19T03:33:30.932Z,30.50
2022-08-19T03:34:31.156Z,30.10
2022-08-19T03:35:30.905Z,32.50
2022-08-19T03:36:30.901Z,33.30
2022-08-19T03:37:30.881Z,32.90
2022-08-19T03:38:30.897Z,33.40
2022-08-19T03:39:30.907Z,31.70
2022-08-19T03:40:31.021Z,32.60
2022-08-19T03:41:44.188Z,32.60
2022-08-19T03:42:47.932Z,32.70
2022-08-19T03:43:31.818Z,34.20
2022-08-19T03:44:30.877Z,32.40
2022-08-19T03:45:30.962Z,32.30
2022-08-19T03:46:30.791Z,32.70
2022-08-19T03:47:30.807Z,31.70
2022-08-19T03:48:30.773Z,32.60
2022-08-19T03:49:30.759Z,31.70
2022-08-19T03:50:30.765Z,32.10
2022-08-19T03:51:31.293Z,33.50
2022-08-19T03:52:30.729Z,34.20
2022-08-19T03:53:30.710Z,33.60
2022-08-19T03:54:30.705Z,32.80
2022-08-19T03:55:30.697Z,33.20
2022-08-19T03:56:30.689Z,33.50
2022-08-19T03:57:31.812Z,32.20
2022-08-19T03:58:30.682Z,33.10
2022-08-19T03:59:30.648Z,34.20
2022-08-19T04:00:30.654Z,33.30
2022-08-19T04:01:35.195Z,33.50
2022-08-19T04:02:31.947Z,32.60
2022-08-19T04:03:30.650Z,35.00
2022-08-19T04:04:30.599Z,34.40
2022-08-19T04:05:30.603Z,33.20
2022-08-19T04:06:30.610Z,33.80
2022-08-19T04:07:30.559Z,33.60
2022-08-19T04:08:30.879Z,33.20
2022-08-19T04:09:30.548Z,35.50
2022-08-19T04:10:30.529Z,36.00
2022-08-19T04:11:43.984Z,35.50
2022-08-19T04:12:31.529Z,34.60
2022-08-19T04:13:30.513Z,33.90
2022-08-19T04:14:30.903Z,34.50
2022-08-19T04:15:30.474Z,33.80
2022-08-19T04:16:34.997Z,34.20
2022-08-19T04:17:30.456Z,33.40
2022-08-19T04:18:34.691Z,33.60
2022-08-19T04:19:31.446Z,33.70
2022-08-19T04:20:30.600Z,35.10
2022-08-19T04:21:30.409Z,35.90
2022-08-19T04:22:30.409Z,35.10
2022-08-19T04:23:30.392Z,35.40
2022-08-19T04:24:30.392Z,35.30
2022-08-19T04:25:30.361Z,35.80
2022-08-19T04:26:30.566Z,34.50
2022-08-19T04:27:30.347Z,34.60
2022-08-19T04:28:30.352Z,35.20
2022-08-19T04:29:30.329Z,34.90
2022-08-19T04:30:30.318Z,33.10
2022-08-19T04:31:30.301Z,34.20
2022-08-19T04:32:30.451Z,33.40
2022-08-19T04:33:30.294Z,32.70
2022-08-19T04:34:30.293Z,32.20
2022-08-19T04:35:30.261Z,32.20
2022-08-19T04:36:30.288Z,33.70
2022-08-19T04:37:35.344Z,33.20
2022-08-19T04:38:31.400Z,34.70
2022-08-19T04:39:30.247Z,33.10
2022-08-19T04:40:30.213Z,33.50
2022-08-19T04:41:30.212Z,35.20
2022-08-19T04:42:30.617Z,35.90
2022-08-19T04:43:30.338Z,34.80
2022-08-19T04:44:30.195Z,34.50
2022-08-19T04:45:39.581Z,35.20
2022-08-19T04:46:39.868Z,36.00
2022-08-19T04:47:48.284Z,35.00
2022-08-19T04:48:31.285Z,34.80
2022-08-19T04:49:30.110Z,34.60
2022-08-19T04:50:30.117Z,35.30
2022-08-19T04:51:30.091Z,34.50
2022-08-19T04:52:30.092Z,32.80
2022-08-19T04:53:37.725Z,33.10
2022-08-19T04:54:38.574Z,32.70
2022-08-19T04:55:33.402Z,36.10
2022-08-19T04:56:31.067Z,34.90
2022-08-19T04:57:30.026Z,34.50
2022-08-19T04:58:30.033Z,36.60
2022-08-19T04:59:29.999Z,35.70
2022-08-19T05:00:30.154Z,36.50
2022-08-19T05:01:30.067Z,37.60
2022-08-19T05:02:29.983Z,34.40
2022-08-19T05:03:30.630Z,32.50
2022-08-19T05:04:29.956Z,33.60
2022-08-19T05:05:29.939Z,33.00
2022-08-19T05:06:31.088Z,34.30
2022-08-19T05:07:29.921Z,33.50
2022-08-19T05:08:30.767Z,34.10
2022-08-19T05:09:53.288Z,31.60
2022-08-19T05:10:30.886Z,34.10
2022-08-19T05:11:29.872Z,32.50
2022-08-19T05:12:30.063Z,32.80
2022-08-19T05:13:29.926Z,29.30
2022-08-19T05:14:29.843Z,31.60
2022-08-19T05:15:29.832Z,30.20
2022-08-19T05:16:29.825Z,31.70
2022-08-19T05:17:33.610Z,32.20
2022-08-19T05:18:31.134Z,32.70
2022-08-19T05:19:29.785Z,30.50
2022-08-19T05:20:29.783Z,31.40
2022-08-19T05:21:29.767Z,31.50
2022-08-19T05:22:29.767Z,31.80
2022-08-19T05:23:29.756Z,32.10
2022-08-19T05:24:30.062Z,32.80
2022-08-19T05:25:29.722Z,32.40
2022-08-19T05:26:29.729Z,31.70
2022-08-19T05:27:29.713Z,33.20
2022-08-19T05:28:29.695Z,32.40
2022-08-19T05:29:36.159Z,31.50
2022-08-19T05:30:46.514Z,31.30
2022-08-19T05:31:30.694Z,30.00
2022-08-19T05:32:29.651Z,31.20
2022-08-19T05:33:29.635Z,29.40
2022-08-19T05:34:29.627Z,29.40
2022-08-19T05:35:29.801Z,29.60
2022-08-19T05:36:30.606Z,28.80
2022-08-19T05:37:29.596Z,27.10
2022-08-19T05:38:29.605Z,27.70
2022-08-19T05:39:29.590Z,28.30
2022-08-19T05:40:29.565Z,29.30
2022-08-19T05:41:29.707Z,28.20
2022-08-19T05:42:29.551Z,26.10
2022-08-19T05:43:29.529Z,27.90
2022-08-19T05:44:29.528Z,28.60
2022-08-19T05:45:29.516Z,26.90
2022-08-19T05:46:29.502Z,28.10
2022-08-19T05:47:29.658Z,27.10
2022-08-19T05:48:29.481Z,27.10
2022-08-19T05:49:29.471Z,26.00
2022-08-19T05:50:29.459Z,28.60
2022-08-19T05:51:29.490Z,28.50
2022-08-19T05:52:29.439Z,25.80
2022-08-19T05:53:29.607Z,26.20
2022-08-19T05:54:29.422Z,26.50
2022-08-19T05:55:29.407Z,25.60
2022-08-19T05:56:29.401Z,26.80
2022-08-19T05:57:29.377Z,27.10
2022-08-19T05:58:29.397Z,26.50
2022-08-19T05:59:29.548Z,27.10
2022-08-19T06:00:29.351Z,26.40
2022-08-19T06:01:29.338Z,25.90
2022-08-19T06:02:29.420Z,26.60
2022-08-19T06:03:29.313Z,25.30
2022-08-19T06:04:29.309Z,25.10
2022-08-19T06:05:29.631Z,27.30
2022-08-19T06:06:29.289Z,26.60
2022-08-19T06:07:29.309Z,24.80
2022-08-19T06:08:34.372Z,25.20
2022-08-19T06:09:30.251Z,26.30
2022-08-19T06:10:29.294Z,26.00
2022-08-19T06:11:29.553Z,24.70
2022-08-19T06:12:29.240Z,26.10
2022-08-19T06:13:29.219Z,26.40
2022-08-19T06:14:29.232Z,26.60
2022-08-19T06:15:29.199Z,25.50
2022-08-19T06:16:29.179Z,27.10
2022-08-19T06:17:29.334Z,28.50
2022-08-19T06:18:29.159Z,27.80
2022-08-19T06:19:29.148Z,28.20
2022-08-19T06:20:54.140Z,26.20
2022-08-19T06:21:30.125Z,26.90
2022-08-19T06:22:29.330Z,27.00
2022-08-19T06:23:29.106Z,27.00
2022-08-19T06:24:29.094Z,27.30
2022-08-19T06:25:30.591Z,28.30
2022-08-19T06:26:29.069Z,27.60
2022-08-19T06:27:29.108Z,29.20
2022-08-19T06:28:29.205Z,28.60
2022-08-19T06:29:29.043Z,27.90
2022-08-19T06:30:29.032Z,28.10
2022-08-19T06:31:29.040Z,28.40
2022-08-19T06:32:29.014Z,27.80
2022-08-19T06:33:29.173Z,27.50
2022-08-19T06:34:29.009Z,26.40
2022-08-19T06:35:28.984Z,27.10
2022-08-19T06:36:28.962Z,27.10
2022-08-19T06:37:28.977Z,26.90
2022-08-19T06:38:28.949Z,25.60
2022-08-19T06:39:28.962Z,24.40
2022-08-19T06:40:28.949Z,25.70
2022-08-19T06:41:28.931Z,25.40
2022-08-19T06:42:28.904Z,27.00
2022-08-19T06:43:29.137Z,27.20
2022-08-19T06:44:28.893Z,27.50
2022-08-19T06:45:35.385Z,27.40
2022-08-19T06:46:29.862Z,28.00
2022-08-19T06:47:29.869Z,28.30
2022-08-19T06:48:28.835Z,27.70
2022-08-19T06:49:28.833Z,27.00
2022-08-19T06:50:29.021Z,26.60
2022-08-19T06:52:28.784Z,26.40
2022-08-19T06:53:28.783Z,25.30
2022-08-19T06:54:30.741Z,24.80
2022-08-19T06:55:28.761Z,25.30
2022-08-19T06:56:28.893Z,25.40
2022-08-19T06:57:28.746Z,25.70
2022-08-19T06:58:28.733Z,23.80
2022-08-19T06:59:28.722Z,23.50
2022-08-19T07:00:28.812Z,21.90
2022-08-19T07:01:29.033Z,22.50
2022-08-19T07:02:28.683Z,22.30
2022-08-19T07:03:28.693Z,23.10
2022-08-19T07:04:28.667Z,24.60
2022-08-19T07:05:28.652Z,24.00
2022-08-19T07:06:44.828Z,23.30
2022-08-19T07:07:29.799Z,23.00
2022-08-19T07:08:29.256Z,23.60
2022-08-19T07:09:28.620Z,23.20
2022-08-19T07:10:28.609Z,24.20
2022-08-19T07:11:28.584Z,23.40
2022-08-19T07:12:29.652Z,22.20
2022-08-19T07:13:28.816Z,22.30
2022-08-19T07:14:28.558Z,22.80
2022-08-19T07:15:28.558Z,23.40
2022-08-19T07:16:28.973Z,22.40
2022-08-19T07:17:28.524Z,21.10
2022-08-19T07:18:28.506Z,22.40
2022-08-19T07:19:28.529Z,22.20
2022-08-19T07:20:29.599Z,21.60
2022-08-19T07:21:29.462Z,23.00
2022-08-19T07:22:28.470Z,21.20
2022-08-19T07:23:28.519Z,22.70
2022-08-19T07:24:28.480Z,23.20
2022-08-19T07:25:32.522Z,22.30
2022-08-19T07:26:28.426Z,22.70
2022-08-19T07:27:28.417Z,23.50
2022-08-19T07:28:28.404Z,22.90
2022-08-19T07:29:28.537Z,20.90
2022-08-19T07:30:28.385Z,20.20
2022-08-19T07:31:28.394Z,21.80
2022-08-19T07:32:28.388Z,20.70
2022-08-19T07:33:28.359Z,22.00
2022-08-19T07:34:28.336Z,22.70
2022-08-19T07:35:28.325Z,22.00
2022-08-19T07:36:28.317Z,21.60
2022-08-19T07:37:32.828Z,22.00
2022-08-19T07:38:28.297Z,22.10
2022-08-19T07:39:28.295Z,22.30
2022-08-19T07:40:28.275Z,21.50
2022-08-19T07:41:28.266Z,22.00
2022-08-19T07:42:28.260Z,21.40
2022-08-19T07:43:34.744Z,22.00
2022-08-19T07:44:29.285Z,21.40
2022-08-19T07:45:28.223Z,21.70
2022-08-19T07:46:28.216Z,21.20
2022-08-19T07:47:47.448Z,20.50
2022-08-19T07:48:29.428Z,21.40
2022-08-19T07:49:28.182Z,21.20
2022-08-19T07:50:28.166Z,22.20
2022-08-19T07:51:36.185Z,22.40
2022-08-19T07:52:29.140Z,21.30
2022-08-19T07:53:28.135Z,21.80
2022-08-19T07:54:28.335Z,21.10
2022-08-19T07:55:40.261Z,20.90
2022-08-19T07:56:29.096Z,20.30
2022-08-19T07:57:28.110Z,20.60
2022-08-19T07:58:28.078Z,22.10
2022-08-19T07:59:28.075Z,22.00
2022-08-19T08:00:28.251Z,20.50
2022-08-19T08:01:28.078Z,19.60
2022-08-19T08:02:28.078Z,19.70
2022-08-19T08:03:28.028Z,18.70
2022-08-19T08:04:28.031Z,19.70
2022-08-19T08:05:28.007Z,19.20
2022-08-19T08:06:28.200Z,20.30
2022-08-19T08:07:31.437Z,21.10
2022-08-19T08:08:27.981Z,18.40
2022-08-19T08:09:27.975Z,18.80
2022-08-19T08:10:27.957Z,19.30
2022-08-19T08:11:27.938Z,19.30
2022-08-19T08:12:34.780Z,18.90
2022-08-19T08:13:29.072Z,18.40
2022-08-19T08:14:28.961Z,19.80
2022-08-19T08:15:27.899Z,20.60
2022-08-19T08:16:27.900Z,20.00
2022-08-19T08:17:31.163Z,20.20
2022-08-19T08:18:30.509Z,19.30
2022-08-19T08:19:27.868Z,18.60
2022-08-19T08:20:27.914Z,18.90
2022-08-19T08:21:27.868Z,18.70
2022-08-19T08:22:27.886Z,19.00
2022-08-19T08:23:27.840Z,17.70
2022-08-19T08:24:28.592Z,17.40
2022-08-19T08:25:27.819Z,17.90
2022-08-19T08:26:27.788Z,17.60
2022-08-19T08:27:27.781Z,16.30
2022-08-19T08:28:29.597Z,16.90
2022-08-19T08:29:34.632Z,16.00
2022-08-19T08:30:31.275Z,15.90
2022-08-19T08:31:27.734Z,15.60
2022-08-19T08:32:27.740Z,14.60
2022-08-19T08:33:34.331Z,14.50
2022-08-19T08:34:28.701Z,13.90
2022-08-19T08:35:27.726Z,13.10
2022-08-19T08:36:27.844Z,13.50
2022-08-19T08:37:27.700Z,12.10
2022-08-19T08:38:28.239Z,12.00
2022-08-19T08:39:28.650Z,11.70
2022-08-19T08:40:27.634Z,11.10
2022-08-19T08:41:27.788Z,12.00
2022-08-19T08:42:27.617Z,11.60
2022-08-19T08:43:27.610Z,11.40
2022-08-19T08:44:27.591Z,10.90
2022-08-19T08:45:27.581Z,11.30
2022-08-19T08:46:30.473Z,10.60
2022-08-19T08:47:27.556Z,11.40
2022-08-19T08:48:27.542Z,10.80
2022-08-19T08:49:27.531Z,10.70
2022-08-19T08:50:27.529Z,10.30
2022-08-19T08:51:29.927Z,10.60
2022-08-19T08:52:32.217Z,10.10
2022-08-19T08:53:31.779Z,10.10
2022-08-19T08:54:28.494Z,10.40
2022-08-19T08:55:27.470Z,9.90
2022-08-19T08:56:28.484Z,10.00
2022-08-19T08:57:27.782Z,9.60
2022-08-19T08:58:27.443Z,9.30
2022-08-19T08:59:27.431Z,10.10
2022-08-19T09:00:27.421Z,9.90
2022-08-19T09:01:30.409Z,9.90
2022-08-19T09:02:27.392Z,9.70
2022-08-19T09:03:27.556Z,9.80
2022-08-19T09:04:27.391Z,10.10
2022-08-19T09:05:27.367Z,10.60
2022-08-19T09:06:28.365Z,10.00
2022-08-19T09:07:35.231Z,10.50
2022-08-19T09:08:28.652Z,10.70
2022-08-19T09:09:29.009Z,10.80
2022-08-19T09:10:27.337Z,10.30
2022-08-19T09:11:42.832Z,10.40
2022-08-19T09:12:28.291Z,10.30
2022-08-19T09:13:27.286Z,9.80
2022-08-19T09:14:49.309Z,10.70
2022-08-19T09:15:33.767Z,10.50
2022-08-19T09:16:28.315Z,10.60
2022-08-19T09:17:27.235Z,10.10
2022-08-19T09:18:29.827Z,10.40
2022-08-19T09:19:27.376Z,10.00
2022-08-19T09:20:27.194Z,9.70
2022-08-19T09:21:33.134Z,8.90
2022-08-19T09:22:28.180Z,9.00
2022-08-19T09:23:27.339Z,8.90
2022-08-19T09:24:31.178Z,7.70
2022-08-19T09:25:29.425Z,8.40
2022-08-19T09:26:29.809Z,7.10
2022-08-19T09:27:42.336Z,6.60
2022-08-19T09:28:28.122Z,6.20
2022-08-19T09:29:27.104Z,5.90
2022-08-19T09:30:27.095Z,6.00
2022-08-19T09:31:27.581Z,5.60
2022-08-19T09:32:27.217Z,5.40
2022-08-19T09:33:27.067Z,6.00
2022-08-19T09:34:27.049Z,5.50
2022-08-19T09:35:28.443Z,5.70
2022-08-19T09:36:31.177Z,5.50
2022-08-19T09:37:28.172Z,5.30
2022-08-19T09:38:27.005Z,5.10
2022-08-19T09:39:27.006Z,5.70
2022-08-19T09:40:28.091Z,5.00
2022-08-19T09:41:26.975Z,5.40
2022-08-19T09:42:30.014Z,5.40
2022-08-19T09:43:33.680Z,5.90
2022-08-19T09:44:27.938Z,5.50
2022-08-19T09:45:26.939Z,5.90
2022-08-19T09:46:26.915Z,6.10
2022-08-19T09:47:27.084Z,6.60
2022-08-19T09:48:26.896Z,5.80
2022-08-19T09:49:26.897Z,5.70
2022-08-19T09:50:26.879Z,5.70
2022-08-19T09:51:26.877Z,6.50
2022-08-19T09:52:32.661Z,5.70
2022-08-19T09:53:28.043Z,6.50
2022-08-19T09:54:26.844Z,6.90
2022-08-19T09:55:31.034Z,6.80
2022-08-19T09:56:27.815Z,7.10
2022-08-19T09:57:26.804Z,6.50
2022-08-19T09:58:26.925Z,7.20
2022-08-19T09:59:27.010Z,6.90
2022-08-19T10:00:26.774Z,6.80
2022-08-19T10:01:26.803Z,7.00
2022-08-19T10:02:26.762Z,7.60
2022-08-19T10:03:30.222Z,7.40
2022-08-19T10:04:26.926Z,6.70
2022-08-19T10:05:27.137Z,7.00
2022-08-19T10:06:45.755Z,7.30
2022-08-19T10:07:36.116Z,7.60
2022-08-19T10:08:27.691Z,7.70
2022-08-19T10:09:34.402Z,6.90
2022-08-19T10:10:27.845Z,6.70
2022-08-19T10:11:27.378Z,6.70
2022-08-19T10:12:26.638Z,6.70
2022-08-19T10:13:26.642Z,6.50
2022-08-19T10:14:26.617Z,6.70
2022-08-19T10:15:29.169Z,5.90
2022-08-19T10:16:30.279Z,6.60
2022-08-19T10:17:27.408Z,6.20
2022-08-19T10:18:27.608Z,6.40
2022-08-19T10:19:26.605Z,6.50
2022-08-19T10:20:26.569Z,6.50
2022-08-19T10:21:26.553Z,7.00
2022-08-19T10:22:26.752Z,6.60
2022-08-19T10:23:26.528Z,6.50
2022-08-19T10:24:27.516Z,6.60
2022-08-19T10:25:26.514Z,6.10
2022-08-19T10:26:26.712Z,6.50
2022-08-19T10:27:26.647Z,6.60
2022-08-19T10:28:26.695Z,6.40
2022-08-19T10:29:32.186Z,6.40
2022-08-19T10:30:27.449Z,6.40
2022-08-19T10:32:01.095Z,6.70
2022-08-19T10:32:33.691Z,6.40
2022-08-19T10:33:39.320Z,6.70
2022-08-19T10:34:28.551Z,7.20
2022-08-19T10:35:26.396Z,7.20
2022-08-19T10:36:26.387Z,6.30
2022-08-19T10:37:31.371Z,6.60
2022-08-19T10:38:31.505Z,6.70
2022-08-19T10:39:26.350Z,6.60
2022-08-19T10:40:26.634Z,7.30
2022-08-19T10:41:26.328Z,7.20
2022-08-19T10:42:26.320Z,7.10
2022-08-19T10:43:26.313Z,6.50
2022-08-19T10:44:32.102Z,6.70
2022-08-19T10:45:28.170Z,6.40
2022-08-19T10:46:26.279Z,7.20
2022-08-19T10:47:26.342Z,7.00
2022-08-19T10:48:27.262Z,7.50
2022-08-19T10:49:26.239Z,6.60
2022-08-19T10:50:28.738Z,7.60
2022-08-19T10:51:26.377Z,6.60
2022-08-19T10:52:32.494Z,6.60
2022-08-19T10:53:27.204Z,6.50
2022-08-19T10:54:32.172Z,6.20
2022-08-19T10:55:29.790Z,6.50
2022-08-19T10:56:26.430Z,6.70
2022-08-19T10:57:36.871Z,6.30
2022-08-19T10:58:27.169Z,5.70
2022-08-19T10:59:26.890Z,6.00
2022-08-19T11:00:26.131Z,5.90
2022-08-19T11:01:26.171Z,5.10
2022-08-19T11:02:26.271Z,5.40
2022-08-19T11:03:26.092Z,5.70
2022-08-19T11:04:28.847Z,5.50
2022-08-19T11:05:26.078Z,5.40
2022-08-19T11:06:26.065Z,5.40
2022-08-19T11:07:26.237Z,5.80
2022-08-19T11:08:26.049Z,5.60
2022-08-19T11:09:33.325Z,5.50
2022-08-19T11:10:27.020Z,5.70
2022-08-19T11:11:26.013Z,5.20
2022-08-19T11:12:26.012Z,5.30
2022-08-19T11:13:26.177Z,4.70
2022-08-19T11:14:25.973Z,5.50
2022-08-19T11:15:25.960Z,5.00
2022-08-19T11:16:26.116Z,4.80
2022-08-19T11:17:25.950Z,4.50
2022-08-19T11:18:25.929Z,5.10
2022-08-19T11:19:25.919Z,5.20
2022-08-19T11:20:25.922Z,4.60
2022-08-19T11:21:25.914Z,4.50
2022-08-19T11:22:34.397Z,4.60
2022-08-19T11:23:26.883Z,4.70
2022-08-19T11:24:25.901Z,4.70
2022-08-19T11:25:25.858Z,5.00
2022-08-19T11:26:25.869Z,4.50
2022-08-19T11:27:26.093Z,4.60
2022-08-19T11:28:25.846Z,4.90
2022-08-19T11:29:25.833Z,4.30
2022-08-19T11:30:25.811Z,4.60
2022-08-19T11:31:28.922Z,4.30
2022-08-19T11:32:25.792Z,4.00
2022-08-19T11:33:25.937Z,3.90
2022-08-19T11:34:25.772Z,3.90
2022-08-19T11:35:25.786Z,4.00
2022-08-19T11:36:25.741Z,4.00
2022-08-19T11:37:25.731Z,3.70
2022-08-19T11:38:25.742Z,4.20
2022-08-19T11:39:25.937Z,3.60
2022-08-19T11:40:25.695Z,3.20
2022-08-19T11:41:25.690Z,3.50
2022-08-19T11:42:25.681Z,3.40
2022-08-19T11:43:25.661Z,3.40
2022-08-19T11:44:25.652Z,3.10
2022-08-19T11:45:25.818Z,3.30
2022-08-19T11:46:25.634Z,3.80
2022-08-19T11:47:25.698Z,3.50
2022-08-19T11:48:25.615Z,3.70
2022-08-19T11:49:25.611Z,3.60
2022-08-19T11:50:25.591Z,3.20
2022-08-19T11:51:25.625Z,3.40
2022-08-19T11:52:25.577Z,3.40
2022-08-19T11:53:25.553Z,3.20
2022-08-19T11:54:25.573Z,3.60
2022-08-19T11:55:25.533Z,3.60
2022-08-19T11:56:25.574Z,3.30
2022-08-19T11:57:25.663Z,3.60
2022-08-19T11:58:25.504Z,3.30
2022-08-19T11:59:25.490Z,3.70
2022-08-19T12:00:25.510Z,3.70
2022-08-19T12:01:25.474Z,3.90
2022-08-19T12:02:25.463Z,3.70
2022-08-19T12:03:25.607Z,3.80
2022-08-19T12:04:25.532Z,3.50
2022-08-19T12:05:25.430Z,3.40
2022-08-19T12:06:25.484Z,3.50
2022-08-19T12:07:25.409Z,3.70
2022-08-19T12:08:25.436Z,3.60
2022-08-19T12:09:25.662Z,3.20
2022-08-19T12:10:26.491Z,3.50
2022-08-19T12:11:25.363Z,3.50
2022-08-19T12:12:25.365Z,3.30
2022-08-19T12:13:25.339Z,3.50
2022-08-19T12:14:25.366Z,3.40
2022-08-19T12:15:25.481Z,3.00
2022-08-19T12:16:25.308Z,3.40
2022-08-19T12:17:25.300Z,3.20
2022-08-19T12:18:25.291Z,3.40
2022-08-19T12:19:25.279Z,3.70
2022-08-19T12:20:25.294Z,4.00
2022-08-19T12:21:25.275Z,3.50
2022-08-19T12:22:25.251Z,3.20
2022-08-19T12:23:25.921Z,3.30
2022-08-19T12:24:25.223Z,3.40
2022-08-19T12:25:25.708Z,3.70
2022-08-19T12:26:25.205Z,3.40
2022-08-19T12:27:35.738Z,3.70
2022-08-19T12:28:26.192Z,4.20
2022-08-19T12:29:25.164Z,3.60
2022-08-19T12:30:25.162Z,3.70
2022-08-19T12:31:25.308Z,3.60
2022-08-19T12:32:25.137Z,3.90
2022-08-19T12:33:25.147Z,3.50
2022-08-19T12:34:25.131Z,4.10
2022-08-19T12:35:25.103Z,3.90
2022-08-19T12:36:25.087Z,3.80
2022-08-19T12:37:25.250Z,3.70
2022-08-19T12:38:25.073Z,4.10
2022-08-19T12:39:25.062Z,4.20
2022-08-19T12:40:26.299Z,4.10
2022-08-19T12:41:25.035Z,4.00
2022-08-19T12:42:25.028Z,3.90
2022-08-19T12:43:25.176Z,3.80
2022-08-19T12:44:31.861Z,3.80
2022-08-19T12:45:26.016Z,3.90
2022-08-19T12:46:26.078Z,3.80
2022-08-19T12:47:24.968Z,3.70
2022-08-19T12:48:34.751Z,3.50
2022-08-19T12:49:52.796Z,3.70
2022-08-19T12:50:25.953Z,3.60
2022-08-19T12:51:24.933Z,3.50
2022-08-19T12:52:24.930Z,3.60
2022-08-19T12:53:24.943Z,3.70
2022-08-19T12:54:24.919Z,3.60
2022-08-19T12:55:25.048Z,3.30
2022-08-19T12:56:24.878Z,3.20
2022-08-19T12:57:31.538Z,3.30
2022-08-19T12:58:27.469Z,3.10
2022-08-19T12:59:24.849Z,3.50
2022-08-19T13:00:24.840Z,3.30
2022-08-19T13:01:24.876Z,3.30